createdAt,value
2019-01-18T00:02:23.386Z,88.35
2019-01-18T00:04:51.844Z,88.24
2019-01-18T00:07:20.330Z,88.91
2019-01-18T00:09:48.796Z,88.59
2019-01-18T00:12:17.281Z,88.79
2019-01-18T00:14:45.743Z,89.43
2019-01-18T00:17:14.227Z,89.17
2019-01-18T00:19:42.673Z,89.28
2019-01-18T00:22:11.187Z,89.24
2019-01-18T00:24:39.641Z,89.43
2019-01-18T00:27:08.123Z,89.39
2019-01-18T00:29:36.574Z,90.19
2019-01-18T00:32:05.220Z,89.60
2019-01-18T00:34:33.671Z,89.25
2019-01-18T00:37:02.145Z,90.12
2019-01-18T00:39:30.599Z,90.28
2019-01-18T00:41:59.075Z,89.95
2019-01-18T00:44:27.540Z,90.02
2019-01-18T00:46:56.022Z,89.83
2019-01-18T00:49:24.482Z,89.45
2019-01-18T00:51:52.967Z,89.43
2019-01-18T00:54:21.599Z,89.75
2019-01-18T00:56:50.066Z,89.62
2019-01-18T00:59:18.549Z,89.63
2019-01-18T01:01:47.031Z,89.60
2019-01-18T01:04:15.510Z,88.73
2019-01-18T01:06:44.020Z,88.89
2019-01-18T01:09:12.470Z,89.39
2019-01-18T01:11:40.924Z,89.38
2019-01-18T01:14:09.403Z,89.60
2019-01-18T01:16:37.858Z,89.96
2019-01-18T01:19:06.338Z,90.81
2019-01-18T01:21:34.805Z,90.95
2019-01-18T01:24:03.297Z,90.42
2019-01-18T01:26:31.742Z,90.88
2019-01-18T01:29:00.225Z,90.96
2019-01-18T01:31:28.697Z,92.08
2019-01-18T01:33:57.188Z,92.05
2019-01-18T01:36:25.655Z,93.09
2019-01-18T01:38:54.134Z,92.90
2019-01-18T01:41:22.599Z,93.77
2019-01-18T01:43:51.100Z,94.14
2019-01-18T01:46:19.559Z,94.33
2019-01-18T01:48:48.049Z,94.79
2019-01-18T01:51:16.502Z,95.22
2019-01-18T01:53:44.980Z,94.77
2019-01-18T01:56:13.431Z,94.93
2019-01-18T01:58:41.905Z,94.32
2019-01-18T02:01:10.431Z,93.50
2019-01-18T02:03:38.904Z,92.50
2019-01-18T02:06:07.362Z,92.40
2019-01-18T02:08:35.844Z,91.25
2019-01-18T02:11:05.173Z,90.84
2019-01-18T02:13:33.650Z,91.89
2019-01-18T02:16:02.103Z,92.78
2019-01-18T02:18:30.576Z,93.04
2019-01-18T02:20:59.028Z,93.28
2019-01-18T02:23:27.526Z,94.06
2019-01-18T02:25:55.983Z,93.63
2019-01-18T02:28:24.462Z,94.15
2019-01-18T02:30:52.969Z,94.22
2019-01-18T02:33:21.398Z,94.43
2019-01-18T02:35:49.861Z,94.16
2019-01-18T02:38:18.355Z,93.94
2019-01-18T02:40:46.809Z,93.88
2019-01-18T02:43:15.296Z,93.56
2019-01-18T02:45:43.743Z,94.01
2019-01-18T02:48:12.216Z,93.74
2019-01-18T02:50:40.684Z,93.45
2019-01-18T02:53:09.170Z,93.84
2019-01-18T02:55:37.627Z,93.21
2019-01-18T02:58:06.073Z,93.08
2019-01-18T03:00:34.557Z,92.77
2019-01-18T03:03:03.006Z,93.01
2019-01-18T03:05:31.558Z,92.77
2019-01-18T03:08:00.012Z,93.53
2019-01-18T03:10:29.833Z,95.50
2019-01-18T03:12:58.393Z,95.57
2019-01-18T03:15:26.945Z,95.55
2019-01-18T03:17:55.461Z,96.27
2019-01-18T03:20:24.123Z,94.63
2019-01-18T03:22:52.570Z,93.50
2019-01-18T03:25:23.388Z,92.42
2019-01-18T03:27:51.855Z,92.16
2019-01-18T03:30:21.311Z,91.80
2019-01-18T03:32:50.043Z,91.77
2019-01-18T03:35:20.573Z,93.32
2019-01-18T03:37:49.022Z,92.12
2019-01-18T03:40:19.548Z,91.98
2019-01-18T03:42:48.543Z,91.67
2019-01-18T03:45:18.783Z,91.63
2019-01-18T03:47:47.754Z,91.64
2019-01-18T03:50:24.479Z,91.44
2019-01-18T03:52:53.011Z,91.74
2019-01-18T03:55:21.769Z,91.34
2019-01-18T03:57:50.400Z,91.70
2019-01-18T04:00:26.142Z,91.73
2019-01-18T04:02:54.203Z,91.43
2019-01-18T04:05:22.866Z,91.52
2019-01-18T04:07:51.397Z,91.80
2019-01-18T04:10:23.753Z,91.56
2019-01-18T04:12:52.203Z,91.57
2019-01-18T04:15:23.406Z,91.30
2019-01-18T04:17:51.863Z,91.33
2019-01-18T04:20:22.214Z,91.08
2019-01-18T04:22:51.274Z,91.29
2019-01-18T04:25:21.469Z,91.31
2019-01-18T04:27:49.927Z,91.17
2019-01-18T04:30:20.998Z,91.31
2019-01-18T04:32:49.790Z,90.65
2019-01-18T04:35:18.500Z,90.77
2019-01-18T04:37:47.034Z,90.26
2019-01-18T04:40:18.452Z,90.98
2019-01-18T04:42:47.211Z,90.62
2019-01-18T04:45:15.700Z,90.73
2019-01-18T04:47:44.166Z,91.10
2019-01-18T04:50:21.284Z,91.22
2019-01-18T04:52:49.749Z,91.08
2019-01-18T04:55:18.229Z,91.57
2019-01-18T04:57:46.689Z,90.96
2019-01-18T05:00:29.838Z,91.23
2019-01-18T05:02:58.465Z,90.68
2019-01-18T05:05:27.281Z,90.97
2019-01-18T05:07:55.735Z,89.43
2019-01-18T05:10:26.461Z,89.64
2019-01-18T05:12:54.930Z,89.53
2019-01-18T05:15:26.123Z,89.53
2019-01-18T05:17:54.574Z,89.13
2019-01-18T05:20:23.219Z,88.06
2019-01-18T05:22:51.938Z,87.82
2019-01-18T05:25:20.600Z,86.47
2019-01-18T05:27:49.115Z,85.72
2019-01-18T05:30:20.377Z,84.32
2019-01-18T05:32:48.905Z,83.50
2019-01-18T05:35:17.926Z,82.21
2019-01-18T05:37:46.456Z,81.87
2019-01-18T05:40:16.852Z,82.17
2019-01-18T05:42:45.447Z,80.37
2019-01-18T05:45:19.049Z,80.69
2019-01-18T05:47:47.511Z,81.59
2019-01-18T05:50:24.529Z,81.29
2019-01-18T05:52:52.976Z,81.64
2019-01-18T05:55:21.493Z,79.42
2019-01-18T05:57:50.136Z,79.97
2019-01-18T06:00:28.850Z,80.94
2019-01-18T06:02:57.380Z,81.21
2019-01-18T06:05:26.205Z,80.06
2019-01-18T06:07:54.688Z,79.41
2019-01-18T06:10:23.162Z,79.14
2019-01-18T06:12:51.626Z,78.37
2019-01-18T06:15:20.096Z,78.12
2019-01-18T06:17:48.582Z,78.45
2019-01-18T06:20:17.880Z,77.91
2019-01-18T06:22:46.366Z,77.20
2019-01-18T06:25:15.091Z,77.61
2019-01-18T06:27:43.585Z,77.60
2019-01-18T06:30:22.283Z,78.13
2019-01-18T06:32:50.874Z,77.50
2019-01-18T06:35:19.473Z,77.15
2019-01-18T06:37:47.963Z,78.14
2019-01-18T06:40:21.853Z,77.51
2019-01-18T06:42:50.322Z,77.90
2019-01-18T06:45:21.845Z,77.21
2019-01-18T06:47:50.386Z,77.52
2019-01-18T06:50:19.997Z,77.52
2019-01-18T06:52:48.473Z,77.68
2019-01-18T06:55:16.999Z,76.86
2019-01-18T06:57:45.481Z,77.48
2019-01-18T07:00:17.309Z,77.67
2019-01-18T07:02:45.797Z,77.58
2019-01-18T07:05:14.310Z,76.77
2019-01-18T07:07:42.796Z,76.69
2019-01-18T07:10:20.683Z,77.60
2019-01-18T07:12:47.076Z,77.47
2019-01-18T07:15:16.463Z,77.15
2019-01-18T07:17:45.010Z,76.94
2019-01-18T07:20:18.635Z,76.87
2019-01-18T07:22:47.554Z,77.36
2019-01-18T07:25:29.659Z,77.47
2019-01-18T07:27:58.327Z,77.27
2019-01-18T07:30:32.091Z,77.28
2019-01-18T07:33:00.577Z,77.42
2019-01-18T07:35:29.300Z,77.63
2019-01-18T07:37:57.785Z,77.62
2019-01-18T07:40:26.283Z,77.73
2019-01-18T07:42:54.795Z,77.76
2019-01-18T07:45:25.891Z,77.88
2019-01-18T07:47:54.449Z,77.91
2019-01-18T07:50:22.922Z,78.04
2019-01-18T07:52:51.568Z,78.19
2019-01-18T07:55:20.208Z,77.91
2019-01-18T07:57:48.691Z,78.37
2019-01-18T08:00:20.230Z,78.17
2019-01-18T08:02:48.860Z,78.20
2019-01-18T08:05:18.083Z,78.07
2019-01-18T08:07:46.613Z,78.46
2019-01-18T08:10:18.144Z,78.61
2019-01-18T08:12:46.665Z,78.78
2019-01-18T08:15:20.435Z,78.84
2019-01-18T08:17:48.965Z,79.33
2019-01-18T08:20:25.384Z,79.74
2019-01-18T08:22:54.483Z,80.24
2019-01-18T08:25:22.964Z,80.57
2019-01-18T08:27:51.415Z,81.02
2019-01-18T08:30:24.962Z,81.18
2019-01-18T08:32:53.598Z,82.37
2019-01-18T08:35:23.215Z,82.04
2019-01-18T08:37:51.746Z,82.18
2019-01-18T08:40:25.840Z,82.57
2019-01-18T08:42:54.319Z,82.34
2019-01-18T08:45:34.878Z,82.47
2019-01-18T08:48:03.330Z,82.10
2019-01-18T08:50:31.814Z,81.84
2019-01-18T08:53:00.272Z,81.73
2019-01-18T08:55:28.754Z,81.47
2019-01-18T08:57:57.189Z,81.17
2019-01-18T09:00:27.717Z,81.04
2019-01-18T09:02:56.195Z,80.83
2019-01-18T09:05:26.314Z,80.90
2019-01-18T09:07:55.324Z,80.52
2019-01-18T09:10:26.934Z,80.36
2019-01-18T09:12:55.413Z,80.06
2019-01-18T09:15:23.891Z,80.37
2019-01-18T09:17:52.339Z,80.08
2019-01-18T09:20:23.503Z,79.21
2019-01-18T09:22:52.134Z,78.43
2019-01-18T09:25:20.752Z,79.17
2019-01-18T09:27:49.203Z,78.07
2019-01-18T09:30:26.410Z,79.37
2019-01-18T09:32:55.208Z,77.28
2019-01-18T09:35:25.223Z,76.95
2019-01-18T09:37:54.722Z,76.98
2019-01-18T09:40:31.478Z,76.90
2019-01-18T09:42:59.989Z,76.20
2019-01-18T09:45:28.478Z,75.67
2019-01-18T09:47:57.002Z,74.95
2019-01-18T09:50:28.197Z,77.03
2019-01-18T09:52:57.286Z,76.18
2019-01-18T09:55:25.764Z,75.29
2019-01-18T09:57:54.362Z,75.58
2019-01-18T10:00:31.154Z,76.17
2019-01-18T10:02:59.614Z,76.48
2019-01-18T10:05:28.433Z,78.62
2019-01-18T10:07:56.885Z,77.45
2019-01-18T10:10:25.368Z,78.23
2019-01-18T10:12:53.854Z,77.29
2019-01-18T10:15:24.954Z,75.81
2019-01-18T10:17:53.441Z,76.56
2019-01-18T10:20:21.930Z,74.91
2019-01-18T10:22:51.057Z,74.92
2019-01-18T10:25:20.006Z,72.61
2019-01-18T10:27:48.470Z,72.84
2019-01-18T10:30:22.104Z,70.27
2019-01-18T10:32:50.553Z,71.02
2019-01-18T10:35:19.275Z,73.82
2019-01-18T10:37:47.722Z,69.27
2019-01-18T10:40:17.428Z,74.94
2019-01-18T10:42:47.042Z,71.91
2019-01-18T10:45:17.264Z,71.27
2019-01-18T10:47:46.154Z,69.91
2019-01-18T10:50:17.001Z,70.06
2019-01-18T10:52:46.093Z,71.46
2019-01-18T10:55:14.564Z,70.25
2019-01-18T10:57:43.193Z,70.42
2019-01-18T11:00:21.969Z,69.72
2019-01-18T11:02:51.469Z,70.06
2019-01-18T11:05:20.898Z,70.57
2019-01-18T11:07:49.733Z,70.87
2019-01-18T11:10:18.408Z,68.79
2019-01-18T11:12:47.110Z,68.60
2019-01-18T11:15:20.995Z,69.99
2019-01-18T11:17:49.530Z,71.31
2019-01-18T11:20:23.635Z,72.25
2019-01-18T11:22:53.228Z,70.23
2019-01-18T11:25:21.699Z,72.43
2019-01-18T11:27:50.169Z,70.56
2019-01-18T11:30:18.633Z,71.26
2019-01-18T11:32:47.119Z,71.64
2019-01-18T11:35:16.042Z,69.83
2019-01-18T11:37:44.589Z,71.09
2019-01-18T11:40:16.121Z,68.75
2019-01-18T11:42:44.676Z,70.49
2019-01-18T11:45:14.047Z,70.55
2019-01-18T11:47:42.691Z,71.16
2019-01-18T11:50:19.242Z,70.51
2019-01-18T11:52:47.714Z,69.96
2019-01-18T11:55:16.175Z,70.73
2019-01-18T11:57:44.731Z,69.87
2019-01-18T12:00:25.025Z,69.88
2019-01-18T12:02:53.498Z,69.55
2019-01-18T12:05:22.198Z,71.20
2019-01-18T12:07:50.850Z,69.25
2019-01-18T12:10:22.019Z,68.06
2019-01-18T12:12:50.570Z,66.98
2019-01-18T12:15:19.021Z,68.09
2019-01-18T12:17:47.494Z,67.49
2019-01-18T12:20:24.904Z,68.35
2019-01-18T12:22:53.434Z,68.86
2019-01-18T12:25:22.042Z,70.20
2019-01-18T12:27:50.522Z,69.93
2019-01-18T12:30:22.025Z,70.14
2019-01-18T12:32:50.506Z,69.78
2019-01-18T12:35:18.960Z,69.22
2019-01-18T12:37:47.612Z,68.47
2019-01-18T12:40:16.076Z,69.44
2019-01-18T12:42:44.566Z,67.96
2019-01-18T12:45:15.669Z,69.48
2019-01-18T12:47:44.146Z,68.24
2019-01-18T12:50:18.506Z,68.42
2019-01-18T12:52:46.990Z,68.87
2019-01-18T12:55:16.399Z,68.35
2019-01-18T12:57:45.025Z,67.52
2019-01-18T13:00:19.781Z,67.64
2019-01-18T13:02:48.328Z,68.87
2019-01-18T13:05:22.336Z,68.58
2019-01-18T13:07:50.823Z,68.56
2019-01-18T13:10:19.302Z,69.06
2019-01-18T13:12:47.778Z,69.47
2019-01-18T13:15:21.767Z,69.42
2019-01-18T13:17:50.241Z,69.15
2019-01-18T13:20:18.714Z,68.68
2019-01-18T13:22:47.208Z,68.58
2019-01-18T13:25:17.704Z,69.02
2019-01-18T13:27:46.253Z,69.37
2019-01-18T13:30:17.143Z,69.90
2019-01-18T13:32:46.161Z,69.92
2019-01-18T13:35:14.762Z,68.62
2019-01-18T13:37:43.314Z,69.87
2019-01-18T13:40:20.435Z,69.71
2019-01-18T13:42:48.989Z,70.22
2019-01-18T13:45:17.570Z,70.40
2019-01-18T13:47:47.210Z,70.45
2019-01-18T13:50:19.703Z,70.49
2019-01-18T13:52:48.777Z,69.71
2019-01-18T13:55:30.925Z,69.54
2019-01-18T13:57:59.403Z,68.58
2019-01-18T14:00:27.849Z,68.17
2019-01-18T14:02:56.341Z,69.40
2019-01-18T14:05:24.769Z,69.11
2019-01-18T14:07:53.672Z,68.97
2019-01-18T14:10:27.756Z,68.99
2019-01-18T14:12:56.231Z,68.90
2019-01-18T14:15:25.709Z,69.16
2019-01-18T14:17:54.321Z,68.25
2019-01-18T14:20:25.016Z,69.41
2019-01-18T14:22:53.638Z,69.71
2019-01-18T14:25:22.255Z,68.77
2019-01-18T14:27:50.812Z,69.43
2019-01-18T14:30:21.957Z,69.03
2019-01-18T14:32:55.360Z,69.12
2019-01-18T14:35:20.617Z,69.57
2019-01-18T14:37:50.376Z,69.98
2019-01-18T14:40:19.364Z,69.77
2019-01-18T14:42:52.765Z,69.80
2019-01-18T14:45:27.259Z,69.17
2019-01-18T14:47:55.760Z,69.86
2019-01-18T14:50:24.208Z,69.94
2019-01-18T14:52:52.743Z,69.83
2019-01-18T14:55:22.697Z,70.15
2019-01-18T14:57:51.325Z,70.47
2019-01-18T15:00:23.215Z,70.05
2019-01-18T15:02:51.943Z,69.81
2019-01-18T15:05:20.548Z,70.76
2019-01-18T15:07:48.996Z,70.67
2019-01-18T15:10:20.397Z,70.49
2019-01-18T15:12:51.191Z,70.90
2019-01-18T15:15:19.674Z,70.73
2019-01-18T15:17:49.861Z,70.62
2019-01-18T15:20:21.389Z,71.23
2019-01-18T15:22:49.919Z,70.91
2019-01-18T15:25:19.940Z,71.70
2019-01-18T15:27:48.581Z,71.74
2019-01-18T15:30:25.913Z,71.67
2019-01-18T15:32:54.440Z,71.73
2019-01-18T15:35:25.789Z,71.82
2019-01-18T15:37:54.243Z,72.02
2019-01-18T15:40:31.872Z,72.31
2019-01-18T15:43:01.597Z,72.37
2019-01-18T15:45:30.219Z,72.45
2019-01-18T15:47:58.671Z,72.26
2019-01-18T15:50:29.687Z,72.43
2019-01-18T15:52:58.133Z,72.65
2019-01-18T15:55:26.888Z,72.95
2019-01-18T15:57:55.336Z,72.78
2019-01-18T16:00:29.316Z,72.81
2019-01-18T16:02:57.831Z,73.21
2019-01-18T16:05:26.309Z,73.12
2019-01-18T16:07:54.767Z,73.20
2019-01-18T16:10:23.314Z,73.26
2019-01-18T16:12:51.778Z,73.43
2019-01-18T16:15:23.683Z,73.42
2019-01-18T16:17:52.136Z,73.79
2019-01-18T16:20:22.964Z,73.78
2019-01-18T16:22:51.854Z,73.82
2019-01-18T16:25:28.572Z,73.93
2019-01-18T16:27:57.091Z,73.94
2019-01-18T16:30:27.003Z,73.81
2019-01-18T16:32:57.459Z,73.94
2019-01-18T16:35:26.080Z,73.60
2019-01-18T16:37:54.861Z,73.87
2019-01-18T16:40:29.125Z,73.94
2019-01-18T16:43:00.635Z,73.93
2019-01-18T16:45:29.129Z,74.20
2019-01-18T16:47:57.654Z,74.95
2019-01-18T16:50:26.121Z,74.98
2019-01-18T16:52:54.640Z,74.81
2019-01-18T16:55:23.113Z,74.76
2019-01-18T16:57:51.563Z,74.59
2019-01-18T17:00:35.066Z,74.71
2019-01-18T17:03:03.528Z,74.79
2019-01-18T17:05:32.008Z,74.76
2019-01-18T17:08:00.529Z,74.89
2019-01-18T17:10:29.020Z,74.90
2019-01-18T17:12:57.469Z,74.95
2019-01-18T17:15:25.945Z,74.83
2019-01-18T17:17:54.426Z,74.67
2019-01-18T17:20:28.612Z,75.07
2019-01-18T17:22:57.237Z,75.29
2019-01-18T17:25:25.784Z,75.46
2019-01-18T17:27:54.576Z,75.64
2019-01-18T17:30:23.665Z,76.28
2019-01-18T17:32:52.079Z,76.55
2019-01-18T17:35:38.926Z,76.66
2019-01-18T17:38:33.146Z,76.66
2019-01-18T17:41:21.152Z,77.03
2019-01-18T17:44:09.563Z,76.62
2019-01-18T17:46:43.751Z,76.49
2019-01-18T17:49:39.193Z,76.85
2019-01-18T17:52:10.718Z,76.90
2019-01-18T17:54:42.238Z,76.70
2019-01-18T17:57:31.116Z,77.11
2019-01-18T18:00:31.329Z,76.90
2019-01-18T18:03:17.726Z,77.25
2019-01-18T18:06:01.006Z,77.49
2019-01-18T18:08:53.153Z,77.91
2019-01-18T18:11:27.664Z,78.17
2019-01-18T18:14:18.936Z,79.11
2019-01-18T18:17:04.942Z,79.66
2019-01-18T18:19:52.909Z,81.07
2019-01-18T18:22:41.307Z,80.64
2019-01-18T18:25:33.803Z,80.72
2019-01-18T18:28:07.965Z,80.68
2019-01-18T18:30:39.479Z,81.55
2019-01-18T18:33:23.295Z,81.18
2019-01-18T18:36:11.504Z,81.57
2019-01-18T18:39:10.229Z,81.51
2019-01-18T18:41:41.748Z,82.72
2019-01-18T18:44:28.116Z,82.46
2019-01-18T18:47:28.481Z,83.07
2019-01-18T18:50:19.758Z,82.90
2019-01-18T18:52:51.300Z,83.53
2019-01-18T18:55:31.025Z,83.68
2019-01-18T18:58:17.149Z,84.23
2019-01-18T19:00:48.640Z,83.54
2019-01-18T19:03:22.787Z,82.82
2019-01-18T19:06:12.385Z,83.81
2019-01-18T19:08:59.170Z,84.04
2019-01-18T19:11:48.852Z,84.48
2019-01-18T19:14:26.172Z,83.77
2019-01-18T19:17:06.735Z,83.30
2019-01-18T19:19:47.233Z,83.25
2019-01-18T19:22:18.743Z,83.71
2019-01-18T19:25:06.753Z,83.84
2019-01-18T19:27:53.396Z,84.17
2019-01-18T19:30:41.789Z,83.83
2019-01-18T19:33:16.107Z,84.38
2019-01-18T19:36:04.121Z,83.52
2019-01-18T19:39:03.951Z,84.00
2019-01-18T19:41:38.004Z,84.13
2019-01-18T19:44:21.612Z,84.38
2019-01-18T19:46:58.659Z,83.94
2019-01-18T19:50:03.306Z,83.24
2019-01-18T19:53:00.623Z,83.37
2019-01-18T19:55:37.807Z,83.43
2019-01-18T19:58:33.622Z,83.45
2019-01-18T20:01:37.056Z,83.70
2019-01-18T20:04:23.427Z,82.96
2019-01-18T20:07:06.800Z,83.39
2019-01-18T20:09:47.612Z,83.63
2019-01-18T20:12:40.503Z,83.89
2019-01-18T20:15:29.764Z,83.45
2019-01-18T20:18:26.870Z,83.47
2019-01-18T20:21:19.253Z,83.67
2019-01-18T20:24:03.014Z,83.79
2019-01-18T20:26:59.519Z,83.89
2019-01-18T20:29:49.202Z,83.95
2019-01-18T20:32:23.455Z,83.67
2019-01-18T20:34:58.093Z,83.79
2019-01-18T20:37:44.615Z,83.91
2019-01-18T20:40:22.236Z,83.79
2019-01-18T20:43:02.470Z,84.21
2019-01-18T20:45:42.982Z,83.87
2019-01-18T20:48:29.745Z,83.64
2019-01-18T20:51:01.278Z,83.30
2019-01-18T20:53:38.750Z,83.09
2019-01-18T20:56:19.014Z,82.91
2019-01-18T20:58:59.697Z,82.69
2019-01-18T21:01:52.363Z,82.66
2019-01-18T21:04:39.033Z,83.15
2019-01-18T21:07:10.575Z,83.09
2019-01-18T21:09:51.152Z,83.72
2019-01-18T21:12:28.518Z,83.41
2019-01-18T21:15:14.332Z,83.29
2019-01-18T21:17:48.411Z,83.06
2019-01-18T21:20:28.953Z,82.87
2019-01-18T21:23:06.234Z,83.22
2019-01-18T21:25:37.773Z,82.93
2019-01-18T21:28:11.810Z,83.08
2019-01-18T21:31:14.538Z,83.11
2019-01-18T21:34:04.138Z,83.32
2019-01-18T21:36:49.985Z,83.00
2019-01-18T21:39:42.356Z,82.70
2019-01-18T21:42:16.751Z,82.29
2019-01-18T21:45:00.252Z,82.21
2019-01-18T21:47:40.998Z,82.29
2019-01-18T21:50:30.693Z,81.72
2019-01-18T21:53:20.558Z,81.56
2019-01-18T21:56:10.154Z,80.87
2019-01-18T21:58:41.671Z,80.25
2019-01-18T22:01:31.317Z,80.13
2019-01-18T22:04:05.592Z,80.28
2019-01-18T22:06:52.130Z,80.22
2019-01-18T22:09:35.237Z,80.44
2019-01-18T22:12:22.095Z,80.39
2019-01-18T22:15:25.576Z,80.29
2019-01-18T22:18:13.656Z,80.40
2019-01-18T22:21:04.703Z,80.42
2019-01-18T22:23:36.234Z,80.30
2019-01-18T22:26:25.756Z,80.55
2019-01-18T22:28:59.845Z,80.62
2019-01-18T22:31:31.356Z,80.61
2019-01-18T22:34:02.894Z,80.53
2019-01-18T22:36:46.175Z,80.87
2019-01-18T22:39:34.217Z,81.16
2019-01-18T22:42:11.663Z,80.90
2019-01-18T22:45:04.278Z,81.47
2019-01-18T22:48:04.757Z,80.98
2019-01-18T22:50:44.920Z,80.67
2019-01-18T22:53:31.254Z,80.12
2019-01-18T22:56:14.879Z,79.78
2019-01-18T22:59:01.496Z,79.60
2019-01-18T23:01:38.912Z,79.60
2019-01-18T23:04:22.233Z,80.01
2019-01-18T23:07:13.041Z,79.65
2019-01-18T23:09:55.932Z,79.56
2019-01-18T23:12:51.867Z,79.67
2019-01-18T23:15:45.857Z,79.89
2019-01-18T23:18:26.402Z,79.86
2019-01-18T23:21:03.612Z,79.62
2019-01-18T23:23:37.683Z,79.61
2019-01-18T23:26:36.521Z,79.54
2019-01-18T23:29:10.737Z,79.82
2019-01-18T23:31:45.166Z,79.95
2019-01-18T23:34:19.409Z,79.96
2019-01-18T23:36:50.920Z,79.88
2019-01-18T23:39:46.140Z,79.72
2019-01-18T23:42:26.633Z,80.08
2019-01-18T23:45:14.480Z,79.74
2019-01-18T23:48:00.991Z,79.70
2019-01-18T23:50:38.436Z,79.62
2019-01-18T23:53:44.403Z,79.65
2019-01-18T23:56:23.235Z,79.70
2019-01-18T23:58:54.741Z,79.71
